This is the latest recevied weather packets stored in our database for station/object KG6QHD-13. If no packets are shown the sender has not sent any weather packets the latest 10 day(s).
| Time | Temp. | Humidity | Pressure | Rain* | Wind** | Luminosity | Snow |
|---|---|---|---|---|---|---|---|
| 1777950647 | 6.67° C | 78% | 1014.3 hPa | 0.25 mm | - | 0 W/m² | - |
| 1777950347 | 6.67° C | 77% | 1014.1 hPa | 0.25 mm | - | 0 W/m² | - |
| 1777947649 | 7.22° C | 73% | 1013.8 hPa | 0.25 mm | - | 0 W/m² | - |
| 1777947371 | 7.22° C | 74% | 1013.9 hPa | 0.25 mm | - | 0 W/m² | - |
| 1777946458 | 7.22° C | 74% | 1013.9 hPa | 0.25 mm | - | 0 W/m² | - |
| 1777944947 | 7.78° C | 72% | 1013.5 hPa | 0.25 mm | - | 9 W/m² | - |
| 1777944658 | 7.78° C | 71% | 1013.7 hPa | 0.25 mm | - | 12 W/m² | - |
| 1777943151 | 9.44° C | 60% | 1013.6 hPa | 0 mm | - | 12 W/m² | - |
| 1777942248 | 10.56° C | 51% | 1013.5 hPa | 0 mm | - | 11 W/m² | - |
| 1777941055 | 11.11° C | 46% | 1013 hPa | 0 mm | - | 19 W/m² | - |
| 1777940447 | 11.11° C | 45% | 1012.8 hPa | 0 mm | - | 37 W/m² | - |
| 1777939847 | 12.22° C | 41% | 1012.4 hPa | 0 mm | - | 39 W/m² | - |
| 1777939546 | 12.78° C | 38% | 1012.3 hPa | 0 mm | - | 44 W/m² | - |
| 1777939251 | 13.33° C | 36% | 1012.2 hPa | 0 mm | - | 56 W/m² | - |
| 1777938049 | 14.44° C | 33% | 1011.6 hPa | 0 mm | - | 79 W/m² | - |
| 1777937748 | 14.44° C | 32% | 1011.7 hPa | 0 mm | - | 107 W/m² | - |
| 1777936845 | 15° C | 32% | 1011.7 hPa | 0 mm | - | 165 W/m² | - |
| 1777934752 | 15° C | 30% | 1011.4 hPa | 0 mm | - | 364 W/m² | - |
| 1777934147 | 15° C | 29% | 1011.6 hPa | 0 mm | - | 251 W/m² | - |
| 1777933857 | 15° C | 30% | 1011.6 hPa | 0 mm | - | 241 W/m² | - |
| 1777933252 | 15.56° C | 29% | 1011.5 hPa | 0 mm | - | 221 W/m² | - |
| 1777931747 | 15.56° C | 27% | 1011.4 hPa | 0 mm | - | 135 W/m² | - |
| 1777928148 | 16.11° C | 28% | 1011.3 hPa | 0 mm | - | 220 W/m² | - |
| 1777926348 | 17.22° C | 25% | 1011.5 hPa | 0 mm | - | 216 W/m² | - |
| 1777926047 | 17.78° C | 25% | 1011.4 hPa | 0 mm | - | 227 W/m² | - |
* Rain latest hour (hover to see other rain measurements)
** Current wind speed in m/s (hover to see current wind gust speed)